createdAt,value
2022-12-18T00:02:13.400Z,102838.25
2022-12-18T00:04:39.869Z,102838.16
2022-12-18T00:07:06.273Z,102841.47
2022-12-18T00:09:39.545Z,102834.72
2022-12-18T00:14:42.974Z,102831.03
2022-12-18T00:17:12.406Z,102825.03
2022-12-18T00:19:38.740Z,102829.91
2022-12-18T00:22:05.948Z,102830.53
2022-12-18T00:24:32.424Z,102834.53
2022-12-18T00:26:58.892Z,102845.41
2022-12-18T00:29:25.297Z,102842.78
2022-12-18T00:31:51.720Z,102855.78
2022-12-18T00:34:18.163Z,102855.88
2022-12-18T00:36:44.600Z,102849.84
2022-12-18T00:39:13.133Z,102856.75
2022-12-18T00:41:58.661Z,102860.19
2022-12-18T00:44:25.587Z,102854.13
2022-12-18T00:46:51.937Z,102855.25
2022-12-18T00:49:19.947Z,102849.97
2022-12-18T00:51:46.996Z,102854.38
2022-12-18T00:54:13.989Z,102847.50
2022-12-18T00:56:48.239Z,102849.09
2022-12-18T00:59:15.076Z,102848.94
2022-12-18T01:01:41.561Z,102853.19
2022-12-18T01:04:08.236Z,102850.44
2022-12-18T01:06:34.607Z,102846.03
2022-12-18T01:09:01.811Z,102846.91
2022-12-18T01:11:28.162Z,102857.25
2022-12-18T01:13:55.115Z,102868.38
2022-12-18T01:16:22.938Z,102874.97
2022-12-18T01:18:52.966Z,102863.72
2022-12-18T01:21:19.713Z,102869.84
2022-12-18T01:23:46.754Z,102862.22
2022-12-18T01:26:15.874Z,102856.22
2022-12-18T01:28:42.810Z,102856.38
2022-12-18T01:31:20.081Z,102858.22
2022-12-18T01:33:48.405Z,102861.41
2022-12-18T01:36:32.736Z,102858.69
2022-12-18T01:39:06.418Z,102854.44
2022-12-18T01:42:15.480Z,102851.00
2022-12-18T01:45:14.255Z,102855.19
2022-12-18T01:47:45.410Z,102865.00
2022-12-18T01:50:16.749Z,102870.91
2022-12-18T01:52:47.696Z,102869.13
2022-12-18T01:55:17.255Z,102870.91
2022-12-18T01:57:43.786Z,102874.25
2022-12-18T02:00:21.011Z,102873.66
2022-12-18T02:02:48.039Z,102871.19
2022-12-18T02:05:34.059Z,102861.72
2022-12-18T02:08:13.955Z,102873.66
2022-12-18T02:11:19.355Z,102876.66
2022-12-18T02:14:20.087Z,102876.59
2022-12-18T02:17:26.167Z,102875.63
2022-12-18T02:20:17.276Z,102873.31
2022-12-18T02:22:52.317Z,102863.06
2022-12-18T02:25:40.041Z,102877.53
2022-12-18T02:28:12.541Z,102884.34
2022-12-18T02:30:42.113Z,102888.78
2022-12-18T02:33:12.851Z,102895.78
2022-12-18T02:35:41.798Z,102896.47
2022-12-18T02:38:08.702Z,102888.53
2022-12-18T02:40:38.099Z,102896.22
2022-12-18T02:43:14.013Z,102899.56
2022-12-18T02:45:59.244Z,102890.00
2022-12-18T02:48:34.064Z,102899.38
2022-12-18T02:51:19.533Z,102895.13
2022-12-18T02:53:57.136Z,102902.91
2022-12-18T02:56:36.113Z,102908.16
2022-12-18T02:59:14.783Z,102907.44
2022-12-18T03:01:56.838Z,102917.69
2022-12-18T03:04:31.553Z,102918.56
2022-12-18T03:07:04.194Z,102920.41
2022-12-18T03:09:44.437Z,102905.81
2022-12-18T03:12:26.306Z,102915.19
2022-12-18T03:15:18.055Z,102910.00
2022-12-18T03:17:56.522Z,102909.03
2022-12-18T03:20:27.939Z,102907.88
2022-12-18T03:23:06.059Z,102906.63
2022-12-18T03:25:35.959Z,102899.38
2022-12-18T03:28:04.136Z,102904.59
2022-12-18T03:30:33.570Z,102912.91
2022-12-18T03:33:16.237Z,102922.69
2022-12-18T03:35:45.575Z,102918.19
2022-12-18T03:38:13.765Z,102903.50
2022-12-18T03:40:51.114Z,102915.34
2022-12-18T03:43:37.641Z,102917.81
2022-12-18T03:46:34.650Z,102913.13
2022-12-18T03:49:24.379Z,102913.47
2022-12-18T03:52:05.633Z,102923.88
2022-12-18T03:54:34.792Z,102913.91
2022-12-18T03:57:19.196Z,102909.09
2022-12-18T03:59:49.574Z,102894.84
2022-12-18T04:02:18.785Z,102894.06
2022-12-18T04:04:51.515Z,102897.50
2022-12-18T04:07:19.195Z,102903.63
2022-12-18T04:09:46.993Z,102900.19
2022-12-18T04:12:14.069Z,102911.47
2022-12-18T04:14:40.722Z,102909.88
2022-12-18T04:17:08.862Z,102907.41
2022-12-18T04:19:35.369Z,102905.72
2022-12-18T04:22:02.951Z,102909.88
2022-12-18T04:24:34.634Z,102900.34
2022-12-18T04:27:10.635Z,102908.53
2022-12-18T04:29:43.062Z,102904.38
2022-12-18T04:32:10.219Z,102913.75
2022-12-18T04:34:37.795Z,102918.88
2022-12-18T04:37:05.166Z,102923.03
2022-12-18T04:39:32.584Z,102921.44
2022-12-18T04:42:04.374Z,102913.59
2022-12-18T04:44:30.803Z,102902.78
2022-12-18T04:46:57.143Z,102906.16
2022-12-18T04:49:23.743Z,102905.94
2022-12-18T04:51:50.186Z,102907.75
2022-12-18T04:54:16.585Z,102918.88
2022-12-18T04:56:43.060Z,102912.66
2022-12-18T04:59:09.411Z,102911.88
2022-12-18T05:01:35.968Z,102917.09
2022-12-18T05:04:03.726Z,102922.75
2022-12-18T05:06:30.324Z,102919.78
2022-12-18T05:08:56.847Z,102930.91
2022-12-18T05:11:23.518Z,102939.22
2022-12-18T05:13:49.867Z,102936.53
2022-12-18T05:16:16.308Z,102943.97
2022-12-18T05:18:43.002Z,102945.56
2022-12-18T05:21:09.853Z,102934.50
2022-12-18T05:23:37.026Z,102937.00
2022-12-18T05:26:06.313Z,102952.34
2022-12-18T05:28:36.537Z,102949.41
2022-12-18T05:31:05.080Z,102953.44
2022-12-18T05:33:33.792Z,102946.75
2022-12-18T05:36:02.277Z,102946.22
2022-12-18T05:38:29.957Z,102952.22
2022-12-18T05:40:57.133Z,102959.03
2022-12-18T05:43:25.471Z,102958.94
2022-12-18T05:45:53.548Z,102957.88
2022-12-18T05:48:20.586Z,102966.44
2022-12-18T05:50:48.567Z,102968.22
2022-12-18T05:53:16.691Z,102963.00
2022-12-18T05:55:44.703Z,102961.31
2022-12-18T05:58:12.587Z,102963.00
2022-12-18T06:00:40.797Z,102960.94
2022-12-18T06:03:08.892Z,102959.16
2022-12-18T06:05:37.719Z,102963.50
2022-12-18T06:08:04.528Z,102957.41
2022-12-18T06:10:31.374Z,102961.44
2022-12-18T06:12:57.855Z,102965.66
2022-12-18T06:15:24.222Z,102968.22
2022-12-18T06:17:50.812Z,102968.53
2022-12-18T06:20:17.553Z,102971.19
2022-12-18T06:22:44.588Z,102980.03
2022-12-18T06:25:11.270Z,102977.75
2022-12-18T06:27:38.373Z,102979.72
2022-12-18T06:30:05.846Z,102976.47
2022-12-18T06:32:32.276Z,102980.78
2022-12-18T06:34:58.669Z,102983.34
2022-12-18T06:37:26.976Z,102991.72
2022-12-18T06:39:54.301Z,102986.94
2022-12-18T06:42:20.765Z,102993.63
2022-12-18T06:44:47.104Z,102987.63
2022-12-18T06:47:13.542Z,102984.28
2022-12-18T06:49:39.886Z,102987.31
2022-12-18T06:52:06.292Z,102989.09
2022-12-18T06:54:32.760Z,102980.84
2022-12-18T06:56:59.236Z,102991.47
2022-12-18T06:59:25.843Z,102992.75
2022-12-18T07:01:53.037Z,102986.09
2022-12-18T07:04:19.486Z,102987.44
2022-12-18T07:06:46.077Z,102989.63
2022-12-18T07:09:12.425Z,102988.25
2022-12-18T07:11:38.890Z,102983.31
2022-12-18T07:14:05.695Z,102979.00
2022-12-18T07:16:32.083Z,102991.97
2022-12-18T07:18:58.486Z,102995.53
2022-12-18T07:21:26.743Z,103000.34
2022-12-18T07:23:53.434Z,103001.13
2022-12-18T07:26:21.918Z,103005.56
2022-12-18T07:28:49.357Z,103007.44
2022-12-18T07:31:19.557Z,103010.75
2022-12-18T07:33:48.842Z,103016.78
2022-12-18T07:36:15.554Z,103016.97
2022-12-18T07:38:42.170Z,103010.38
2022-12-18T07:41:11.302Z,103018.16
2022-12-18T07:43:39.291Z,103020.91
2022-12-18T07:46:06.463Z,103025.31
2022-12-18T07:48:33.065Z,103030.44
2022-12-18T07:51:09.197Z,103027.31
2022-12-18T07:53:39.164Z,103035.59
2022-12-18T07:58:55.778Z,103029.75
2022-12-18T08:01:22.310Z,103032.53
2022-12-18T08:03:48.903Z,103030.84
2022-12-18T08:06:16.738Z,103032.50
2022-12-18T08:08:43.397Z,103031.63
2022-12-18T08:11:09.836Z,103029.88
2022-12-18T08:13:36.324Z,103026.63
2022-12-18T08:16:05.611Z,103020.72
2022-12-18T08:18:34.730Z,103021.19
2022-12-18T08:21:12.370Z,103010.31
2022-12-18T08:23:42.925Z,103010.47
2022-12-18T08:26:11.168Z,103019.44
2022-12-18T08:28:37.553Z,103022.97
2022-12-18T08:31:04.828Z,103014.59
2022-12-18T08:33:31.492Z,103022.97
2022-12-18T08:36:00.129Z,103015.47
2022-12-18T08:38:27.516Z,102998.44
2022-12-18T08:41:01.327Z,103010.34
2022-12-18T08:43:47.026Z,103017.72
2022-12-18T08:46:13.859Z,103023.41
2022-12-18T08:48:40.266Z,103019.34
2022-12-18T08:51:06.648Z,103027.75
2022-12-18T08:53:35.815Z,103020.94
2022-12-18T08:56:03.050Z,103013.97
2022-12-18T08:58:29.897Z,103018.06
2022-12-18T09:01:02.813Z,103019.56
2022-12-18T09:03:29.392Z,103018.41
2022-12-18T09:05:55.854Z,103011.19
2022-12-18T09:08:22.255Z,103018.75
2022-12-18T09:10:50.522Z,103014.69
2022-12-18T09:13:18.301Z,103019.25
2022-12-18T09:15:53.203Z,103017.97
2022-12-18T09:18:21.281Z,103015.31
2022-12-18T09:20:47.924Z,103020.22
2022-12-18T09:23:14.836Z,103017.91
2022-12-18T09:25:42.582Z,103013.25
2022-12-18T09:28:14.296Z,103014.34
2022-12-18T09:30:45.199Z,103017.44
2022-12-18T09:33:11.872Z,103013.66
2022-12-18T09:35:41.465Z,103014.13
2022-12-18T09:38:12.524Z,103011.81
2022-12-18T09:40:52.149Z,103017.13
2022-12-18T09:43:28.065Z,103015.06
2022-12-18T09:46:03.292Z,103013.13
2022-12-18T09:48:35.698Z,103012.09
2022-12-18T09:51:10.017Z,103016.47
2022-12-18T09:53:41.594Z,103019.13
2022-12-18T09:56:16.798Z,103011.06
2022-12-18T09:58:51.146Z,103007.78
2022-12-18T10:01:23.699Z,103017.59
2022-12-18T10:03:51.354Z,103018.56
2022-12-18T10:06:43.726Z,103011.16
2022-12-18T10:09:18.374Z,103005.81
2022-12-18T10:11:55.276Z,103010.63
2022-12-18T10:14:45.740Z,102998.81
2022-12-18T10:17:36.734Z,103001.88
2022-12-18T10:20:11.372Z,103007.25
2022-12-18T10:22:46.761Z,103005.47
2022-12-18T10:25:39.682Z,103005.41
2022-12-18T10:28:15.533Z,103018.28
2022-12-18T10:30:43.512Z,103010.69
2022-12-18T10:33:16.835Z,103020.72
2022-12-18T10:35:45.302Z,103027.19
2022-12-18T10:38:14.591Z,103029.31
2022-12-18T10:41:00.045Z,103021.22
2022-12-18T10:43:37.059Z,103022.66
2022-12-18T10:46:09.450Z,103021.66
2022-12-18T10:48:48.140Z,103019.22
2022-12-18T10:51:40.864Z,103007.78
2022-12-18T10:54:15.974Z,103004.13
2022-12-18T10:56:43.161Z,103008.16
2022-12-18T10:59:12.961Z,103001.84
2022-12-18T11:01:59.282Z,102995.34
2022-12-18T11:04:28.547Z,102990.59
2022-12-18T11:07:06.912Z,102992.41
2022-12-18T11:09:40.790Z,102990.56
2022-12-18T11:12:19.232Z,102998.47
2022-12-18T11:14:51.684Z,103007.81
2022-12-18T11:17:35.926Z,102994.31
2022-12-18T11:20:07.909Z,102986.88
2022-12-18T11:22:39.189Z,102991.84
2022-12-18T11:28:04.790Z,102982.53
2022-12-18T11:30:36.556Z,102983.03
2022-12-18T11:33:07.785Z,102971.53
2022-12-18T11:35:40.981Z,102972.22
2022-12-18T11:38:19.484Z,102975.81
2022-12-18T11:40:52.491Z,102977.44
2022-12-18T11:43:28.656Z,102976.56
2022-12-18T11:46:05.574Z,102973.09
2022-12-18T11:48:39.090Z,102965.66
2022-12-18T11:51:14.906Z,102966.84
2022-12-18T11:53:41.321Z,102964.41
2022-12-18T11:56:30.681Z,102962.06
2022-12-18T11:59:26.592Z,102958.28
2022-12-18T12:01:59.727Z,102945.53
2022-12-18T12:04:32.857Z,102932.84
2022-12-18T12:07:08.464Z,102933.44
2022-12-18T12:10:02.250Z,102922.88
2022-12-18T12:12:58.909Z,102918.06
2022-12-18T12:15:44.959Z,102922.81
2022-12-18T12:18:20.458Z,102912.97
2022-12-18T12:20:55.938Z,102915.19
2022-12-18T12:23:44.661Z,102910.78
2022-12-18T12:26:16.716Z,102909.22
2022-12-18T12:29:04.393Z,102901.75
2022-12-18T12:31:52.565Z,102896.88
2022-12-18T12:34:43.198Z,102888.38
2022-12-18T12:37:34.155Z,102887.28
2022-12-18T12:40:11.007Z,102884.84
2022-12-18T12:43:15.803Z,102881.81
2022-12-18T12:46:05.911Z,102869.34
2022-12-18T12:48:43.317Z,102870.78
2022-12-18T12:51:21.863Z,102860.09
2022-12-18T12:53:49.694Z,102851.53
2022-12-18T12:56:20.071Z,102854.84
2022-12-18T12:59:14.186Z,102839.78
2022-12-18T13:01:59.233Z,102849.50
2022-12-18T13:05:02.274Z,102854.50
2022-12-18T13:07:51.067Z,102862.13
2022-12-18T13:10:17.849Z,102844.91
2022-12-18T13:13:47.049Z,102846.53
2022-12-18T13:16:08.422Z,102838.84
2022-12-18T13:18:35.613Z,102844.47
2022-12-18T13:21:03.838Z,102852.59
2022-12-18T13:23:35.222Z,102847.00
2022-12-18T13:26:09.008Z,102848.31
2022-12-18T13:28:47.742Z,102846.97
2022-12-18T13:34:32.223Z,102845.19
2022-12-18T13:37:33.709Z,102845.34
2022-12-18T13:40:00.156Z,102840.13
2022-12-18T13:42:57.592Z,102839.31
2022-12-18T13:45:38.087Z,102827.94
2022-12-18T13:48:12.034Z,102831.28
2022-12-18T13:50:39.807Z,102845.97
2022-12-18T13:53:06.287Z,102852.66
2022-12-18T13:55:33.154Z,102857.44
2022-12-18T13:58:06.845Z,102859.72
2022-12-18T14:00:34.140Z,102855.34
2022-12-18T14:03:01.315Z,102867.13
2022-12-18T14:05:32.553Z,102862.56
2022-12-18T14:08:14.937Z,102843.00
2022-12-18T14:10:48.700Z,102847.97
2022-12-18T14:13:42.719Z,102845.47
2022-12-18T14:16:15.116Z,102842.66
2022-12-18T14:18:45.332Z,102841.66
2022-12-18T14:21:20.768Z,102841.66
2022-12-18T14:23:47.487Z,102833.41
2022-12-18T14:26:29.828Z,102838.16
2022-12-18T14:29:04.502Z,102842.34
2022-12-18T14:31:32.620Z,102847.88
2022-12-18T14:33:58.986Z,102840.00
2022-12-18T14:36:28.267Z,102838.53
2022-12-18T14:38:56.960Z,102837.72
2022-12-18T14:41:25.002Z,102823.91
2022-12-18T14:43:53.756Z,102834.19
2022-12-18T14:46:40.500Z,102841.91
2022-12-18T14:49:34.162Z,102823.84
2022-12-18T14:52:06.656Z,102828.09
2022-12-18T14:54:39.206Z,102831.50
2022-12-18T14:57:19.209Z,102827.59
2022-12-18T14:59:45.683Z,102813.59
2022-12-18T15:02:22.510Z,102813.59
2022-12-18T15:05:06.134Z,102812.03
2022-12-18T15:07:47.913Z,102803.81
2022-12-18T15:10:17.715Z,102794.16
2022-12-18T15:12:46.518Z,102790.94
2022-12-18T15:15:35.227Z,102795.41
2022-12-18T15:18:09.524Z,102788.38
2022-12-18T15:20:42.993Z,102772.28
2022-12-18T15:23:22.689Z,102762.19
2022-12-18T15:26:06.078Z,102769.84
2022-12-18T15:28:37.841Z,102761.88
2022-12-18T15:31:32.991Z,102766.13
2022-12-18T15:34:00.371Z,102761.63
2022-12-18T15:36:29.018Z,102754.91
2022-12-18T15:39:04.049Z,102751.53
2022-12-18T15:41:34.854Z,102749.03
2022-12-18T15:44:03.597Z,102752.56
2022-12-18T15:46:31.628Z,102746.53
2022-12-18T15:49:02.115Z,102743.09
2022-12-18T15:51:39.457Z,102743.31
2022-12-18T15:54:10.675Z,102740.00
2022-12-18T15:56:56.060Z,102743.31
2022-12-18T15:59:24.069Z,102739.06
2022-12-18T16:01:53.821Z,102739.28
2022-12-18T16:04:22.285Z,102732.63
2022-12-18T16:09:36.486Z,102739.81
2022-12-18T16:12:03.144Z,102727.91
2022-12-18T16:14:30.788Z,102733.06
2022-12-18T16:17:02.815Z,102734.81
2022-12-18T16:19:30.309Z,102723.78
2022-12-18T16:21:58.517Z,102727.34
2022-12-18T16:24:27.883Z,102733.34
2022-12-18T16:26:55.270Z,102726.59
2022-12-18T16:29:28.541Z,102724.16
2022-12-18T16:31:55.969Z,102713.06
2022-12-18T16:34:29.266Z,102711.31
2022-12-18T16:37:03.297Z,102701.84
2022-12-18T16:39:32.886Z,102709.47
2022-12-18T16:42:00.042Z,102710.34
2022-12-18T16:44:28.734Z,102705.16
2022-12-18T16:46:55.427Z,102707.72
2022-12-18T16:49:24.638Z,102701.63
2022-12-18T16:51:51.128Z,102698.91
2022-12-18T16:54:19.616Z,102694.56
2022-12-18T16:56:49.695Z,102704.84
2022-12-18T16:59:16.370Z,102687.00
2022-12-18T17:01:42.962Z,102696.50
2022-12-18T17:04:09.653Z,102694.50
2022-12-18T17:06:40.815Z,102691.06
2022-12-18T17:09:09.470Z,102684.97
2022-12-18T17:11:36.459Z,102686.63
2022-12-18T17:14:07.967Z,102685.09
2022-12-18T17:16:34.489Z,102678.34
2022-12-18T17:19:01.926Z,102682.66
2022-12-18T17:21:29.009Z,102674.06
2022-12-18T17:23:55.385Z,102665.47
2022-12-18T17:26:21.890Z,102663.78
2022-12-18T17:28:48.227Z,102670.69
2022-12-18T17:31:19.684Z,102671.13
2022-12-18T17:33:46.732Z,102671.13
2022-12-18T17:36:13.907Z,102663.22
2022-12-18T17:38:43.423Z,102669.81
2022-12-18T17:41:11.535Z,102669.06
2022-12-18T17:43:47.802Z,102655.28
2022-12-18T17:46:14.989Z,102659.59
2022-12-18T17:48:41.748Z,102642.50
2022-12-18T17:51:09.866Z,102626.94
2022-12-18T17:53:39.550Z,102622.75
2022-12-18T17:56:08.477Z,102616.91
2022-12-18T17:58:37.371Z,102620.94
2022-12-18T18:01:06.630Z,102617.56
2022-12-18T18:03:34.276Z,102592.75
2022-12-18T18:06:02.405Z,102586.94
2022-12-18T18:08:29.451Z,102581.66
2022-12-18T18:11:15.888Z,102577.72
2022-12-18T18:14:00.686Z,102579.97
2022-12-18T18:16:37.751Z,102574.84
2022-12-18T18:19:08.249Z,102586.06
2022-12-18T18:21:38.000Z,102577.41
2022-12-18T18:24:05.353Z,102590.56
2022-12-18T18:26:33.488Z,102587.09
2022-12-18T18:29:02.474Z,102580.03
2022-12-18T18:31:31.885Z,102576.34
2022-12-18T18:33:58.542Z,102579.03
2022-12-18T18:36:25.519Z,102570.28
2022-12-18T18:38:52.054Z,102563.03
2022-12-18T18:41:19.254Z,102563.81
2022-12-18T18:43:46.057Z,102566.25
2022-12-18T18:46:14.627Z,102562.94
2022-12-18T18:48:41.772Z,102544.59
2022-12-18T18:51:15.310Z,102546.16
2022-12-18T18:53:49.690Z,102541.09
2022-12-18T18:56:56.465Z,102532.94
2022-12-18T18:59:04.723Z,102522.06
2022-12-18T19:01:31.606Z,102518.56
2022-12-18T19:03:58.175Z,102519.81
2022-12-18T19:06:27.220Z,102512.38
2022-12-18T19:08:56.030Z,102506.72
2022-12-18T19:11:42.019Z,102502.44
2022-12-18T19:14:10.336Z,102500.34
2022-12-18T19:16:37.649Z,102492.69
2022-12-18T19:19:04.774Z,102489.41
2022-12-18T19:21:34.117Z,102477.44
2022-12-18T19:24:02.731Z,102478.59
2022-12-18T19:26:30.213Z,102465.47
2022-12-18T19:29:08.329Z,102467.91
2022-12-18T19:31:36.927Z,102454.09
2022-12-18T19:34:07.947Z,102460.81
2022-12-18T19:36:37.486Z,102456.56
2022-12-18T19:39:10.305Z,102461.75
2022-12-18T19:41:37.116Z,102464.09
2022-12-18T19:44:07.388Z,102464.03
2022-12-18T19:46:35.817Z,102463.16
2022-12-18T19:49:02.756Z,102452.13
2022-12-18T19:51:31.387Z,102450.53
2022-12-18T19:54:00.529Z,102438.88
2022-12-18T19:56:35.168Z,102437.06
2022-12-18T19:59:03.526Z,102439.56
2022-12-18T20:01:34.272Z,102430.47
2022-12-18T20:04:03.954Z,102425.66
2022-12-18T20:06:49.764Z,102421.25
2022-12-18T20:09:16.547Z,102424.69
2022-12-18T20:11:43.255Z,102419.03
2022-12-18T20:14:14.426Z,102416.47
2022-12-18T20:16:43.544Z,102413.06
2022-12-18T20:19:12.014Z,102425.97
2022-12-18T20:21:38.894Z,102428.81
2022-12-18T20:24:06.903Z,102416.16
2022-12-18T20:26:33.338Z,102406.00
2022-12-18T20:28:59.858Z,102411.03
2022-12-18T20:31:26.338Z,102389.22
2022-12-18T20:33:53.371Z,102393.63
2022-12-18T20:36:25.824Z,102395.50
2022-12-18T20:38:59.309Z,102399.63
2022-12-18T20:41:30.581Z,102385.44
2022-12-18T20:44:04.897Z,102379.13
2022-12-18T20:46:31.353Z,102386.91
2022-12-18T20:48:58.089Z,102374.38
2022-12-18T20:51:26.594Z,102363.13
2022-12-18T20:53:54.908Z,102360.72
2022-12-18T20:56:22.383Z,102358.09
2022-12-18T20:58:54.958Z,102358.63
2022-12-18T21:01:22.791Z,102359.72
2022-12-18T21:03:49.869Z,102350.72
2022-12-18T21:06:18.821Z,102349.56
2022-12-18T21:08:45.483Z,102333.28
2022-12-18T21:11:36.281Z,102322.94
2022-12-18T21:14:05.105Z,102313.91
2022-12-18T21:16:32.062Z,102306.41
2022-12-18T21:18:58.767Z,102285.91
2022-12-18T21:21:26.910Z,102291.97
2022-12-18T21:23:53.994Z,102282.72
2022-12-18T21:26:27.223Z,102283.72
2022-12-18T21:28:55.803Z,102294.81
2022-12-18T21:31:23.901Z,102302.41
2022-12-18T21:33:50.599Z,102337.44
2022-12-18T21:36:19.643Z,102369.41
2022-12-18T21:38:46.165Z,102380.28
2022-12-18T21:41:37.452Z,102379.06
2022-12-18T21:44:10.610Z,102394.44
2022-12-18T21:46:43.024Z,102386.50
2022-12-18T21:49:10.754Z,102395.19
2022-12-18T21:51:37.462Z,102389.22
2022-12-18T21:54:04.379Z,102401.03
2022-12-18T21:56:46.827Z,102345.28
2022-12-18T21:59:19.225Z,102339.06
2022-12-18T22:01:46.543Z,102326.22
2022-12-18T22:04:14.034Z,102326.44
2022-12-18T22:06:42.523Z,102330.16
2022-12-18T22:09:10.704Z,102341.38
2022-12-18T22:11:37.307Z,102326.59
2022-12-18T22:14:04.071Z,102340.97
2022-12-18T22:16:30.513Z,102339.13
2022-12-18T22:18:56.881Z,102343.00
2022-12-18T22:21:31.929Z,102332.94
2022-12-18T22:24:02.566Z,102318.56
2022-12-18T22:26:33.888Z,102321.78
2022-12-18T22:29:24.254Z,102314.25
2022-12-18T22:31:50.782Z,102304.50
2022-12-18T22:34:21.919Z,102310.84
2022-12-18T22:36:49.377Z,102308.47
2022-12-18T22:39:21.892Z,102299.06
2022-12-18T22:41:48.850Z,102293.06
2022-12-18T22:44:17.533Z,102296.63
2022-12-18T22:46:56.211Z,102290.53
2022-12-18T22:49:33.893Z,102282.84
2022-12-18T22:52:02.557Z,102283.59
2022-12-18T22:54:28.960Z,102272.84
2022-12-18T22:56:55.495Z,102259.94
2022-12-18T22:59:23.255Z,102261.97
2022-12-18T23:01:51.459Z,102258.47
2022-12-18T23:04:28.384Z,102247.47
2022-12-18T23:06:58.715Z,102243.28
2022-12-18T23:09:25.115Z,102228.91
2022-12-18T23:11:51.558Z,102222.06
2022-12-18T23:14:17.936Z,102208.41
2022-12-18T23:16:44.560Z,102211.06
2022-12-18T23:19:13.053Z,102206.84
2022-12-18T23:21:39.573Z,102202.22
2022-12-18T23:24:06.315Z,102201.09
2022-12-18T23:26:32.843Z,102204.66
2022-12-18T23:29:01.571Z,102195.34
2022-12-18T23:31:30.899Z,102193.69
2022-12-18T23:33:59.001Z,102175.66
2022-12-18T23:36:26.010Z,102196.38
2022-12-18T23:38:54.742Z,102179.38
2022-12-18T23:41:23.184Z,102180.13
2022-12-18T23:43:49.906Z,102169.94
2022-12-18T23:46:22.004Z,102176.88
2022-12-18T23:48:49.681Z,102170.03
2022-12-18T23:51:19.319Z,102173.59
2022-12-18T23:53:46.144Z,102173.66
2022-12-18T23:56:13.852Z,102166.59
2022-12-18T23:58:41.270Z,102170.28
